sensor_id;sensor_type;location;lat;lon;timestamp;P1;durP1;ratioP1;P2;durP2;ratioP2
55254;SDS011;41118;44.634;11.182;2023-03-01T00:02:25;8.98;;;1.25;;
55254;SDS011;41118;44.634;11.182;2023-03-01T00:04:51;6.07;;;2.28;;
55254;SDS011;41118;44.634;11.182;2023-03-01T00:07:17;6.10;;;1.63;;
55254;SDS011;41118;44.634;11.182;2023-03-01T00:09:43;6.32;;;1.85;;
55254;SDS011;41118;44.634;11.182;2023-03-01T00:12:10;5.78;;;1.40;;
55254;SDS011;41118;44.634;11.182;2023-03-01T00:14:37;7.45;;;2.22;;
55254;SDS011;41118;44.634;11.182;2023-03-01T00:17:03;6.07;;;1.75;;
55254;SDS011;41118;44.634;11.182;2023-03-01T00:19:30;4.50;;;1.17;;
55254;SDS011;41118;44.634;11.182;2023-03-01T00:21:57;5.22;;;1.52;;
55254;SDS011;41118;44.634;11.182;2023-03-01T00:24:23;5.30;;;2.97;;
55254;SDS011;41118;44.634;11.182;2023-03-01T00:26:52;5.00;;;1.65;;
55254;SDS011;41118;44.634;11.182;2023-03-01T00:29:20;5.15;;;1.65;;
55254;SDS011;41118;44.634;11.182;2023-03-01T00:31:46;9.93;;;1.85;;
55254;SDS011;41118;44.634;11.182;2023-03-01T00:34:12;11.13;;;2.13;;
55254;SDS011;41118;44.634;11.182;2023-03-01T00:36:38;7.30;;;1.08;;
55254;SDS011;41118;44.634;11.182;2023-03-01T00:39:05;6.25;;;0.90;;
55254;SDS011;41118;44.634;11.182;2023-03-01T00:41:31;7.20;;;1.98;;
55254;SDS011;41118;44.634;11.182;2023-03-01T00:43:59;6.70;;;2.03;;
55254;SDS011;41118;44.634;11.182;2023-03-01T00:46:26;5.25;;;1.50;;
55254;SDS011;41118;44.634;11.182;2023-03-01T00:48:52;8.13;;;2.85;;
55254;SDS011;41118;44.634;11.182;2023-03-01T00:53:45;5.85;;;1.13;;
55254;SDS011;41118;44.634;11.182;2023-03-01T00:56:12;6.53;;;1.17;;
55254;SDS011;41118;44.634;11.182;2023-03-01T00:58:39;9.00;;;2.40;;
55254;SDS011;41118;44.634;11.182;2023-03-01T01:01:09;8.07;;;2.95;;
55254;SDS011;41118;44.634;11.182;2023-03-01T01:03:45;5.43;;;1.85;;
55254;SDS011;41118;44.634;11.182;2023-03-01T01:06:15;7.28;;;0.73;;
55254;SDS011;41118;44.634;11.182;2023-03-01T01:08:41;4.72;;;1.27;;
55254;SDS011;41118;44.634;11.182;2023-03-01T01:11:08;12.05;;;2.00;;
55254;SDS011;41118;44.634;11.182;2023-03-01T01:13:35;6.40;;;1.63;;
55254;SDS011;41118;44.634;11.182;2023-03-01T01:16:01;6.72;;;1.33;;
55254;SDS011;41118;44.634;11.182;2023-03-01T01:18:27;11.25;;;3.10;;
55254;SDS011;41118;44.634;11.182;2023-03-01T01:20:53;7.43;;;1.75;;
55254;SDS011;41118;44.634;11.182;2023-03-01T01:23:20;6.68;;;1.13;;
55254;SDS011;41118;44.634;11.182;2023-03-01T01:25:46;8.10;;;1.40;;
55254;SDS011;41118;44.634;11.182;2023-03-01T01:28:12;5.60;;;1.52;;
55254;SDS011;41118;44.634;11.182;2023-03-01T01:30:39;4.88;;;1.27;;
55254;SDS011;41118;44.634;11.182;2023-03-01T01:33:05;6.50;;;1.35;;
55254;SDS011;41118;44.634;11.182;2023-03-01T01:35:31;4.55;;;1.45;;
55254;SDS011;41118;44.634;11.182;2023-03-01T01:37:57;6.80;;;1.83;;
55254;SDS011;41118;44.634;11.182;2023-03-01T01:40:23;8.55;;;1.85;;
55254;SDS011;41118;44.634;11.182;2023-03-01T01:42:50;6.65;;;1.38;;
55254;SDS011;41118;44.634;11.182;2023-03-01T01:47:55;3.92;;;1.00;;
55254;SDS011;41118;44.634;11.182;2023-03-01T01:50:22;9.07;;;1.55;;
55254;SDS011;41118;44.634;11.182;2023-03-01T01:52:48;6.95;;;1.45;;
55254;SDS011;41118;44.634;11.182;2023-03-01T01:55:17;6.57;;;1.35;;
55254;SDS011;41118;44.634;11.182;2023-03-01T01:57:46;5.95;;;2.03;;
55254;SDS011;41118;44.634;11.182;2023-03-01T02:00:20;5.35;;;2.33;;
55254;SDS011;41118;44.634;11.182;2023-03-01T02:02:48;3.70;;;1.23;;
55254;SDS011;41118;44.634;11.182;2023-03-01T02:07:54;8.25;;;1.73;;
55254;SDS011;41118;44.634;11.182;2023-03-01T02:10:22;8.65;;;1.48;;
55254;SDS011;41118;44.634;11.182;2023-03-01T02:12:48;14.40;;;6.78;;
55254;SDS011;41118;44.634;11.182;2023-03-01T02:15:14;7.30;;;2.47;;
55254;SDS011;41118;44.634;11.182;2023-03-01T02:17:41;9.13;;;2.08;;
55254;SDS011;41118;44.634;11.182;2023-03-01T02:20:25;7.20;;;1.42;;
55254;SDS011;41118;44.634;11.182;2023-03-01T02:22:52;7.05;;;1.75;;
55254;SDS011;41118;44.634;11.182;2023-03-01T02:30:24;6.88;;;1.92;;
55254;SDS011;41118;44.634;11.182;2023-03-01T02:32:53;4.95;;;1.95;;
55254;SDS011;41118;44.634;11.182;2023-03-01T02:35:21;5.82;;;1.90;;
55254;SDS011;41118;44.634;11.182;2023-03-01T02:37:48;6.50;;;1.45;;
55254;SDS011;41118;44.634;11.182;2023-03-01T02:40:15;9.55;;;1.80;;
55254;SDS011;41118;44.634;11.182;2023-03-01T02:42:55;4.68;;;1.40;;
55254;SDS011;41118;44.634;11.182;2023-03-01T02:45:22;5.50;;;1.60;;
55254;SDS011;41118;44.634;11.182;2023-03-01T02:47:48;4.05;;;1.50;;
55254;SDS011;41118;44.634;11.182;2023-03-01T02:50:19;6.47;;;1.77;;
55254;SDS011;41118;44.634;11.182;2023-03-01T02:55:21;7.43;;;1.38;;
55254;SDS011;41118;44.634;11.182;2023-03-01T02:57:47;5.82;;;1.95;;
55254;SDS011;41118;44.634;11.182;2023-03-01T03:00:19;6.07;;;1.92;;
55254;SDS011;41118;44.634;11.182;2023-03-01T03:02:47;9.73;;;2.83;;
55254;SDS011;41118;44.634;11.182;2023-03-01T03:05:17;6.25;;;1.25;;
55254;SDS011;41118;44.634;11.182;2023-03-01T03:07:44;7.93;;;1.77;;
55254;SDS011;41118;44.634;11.182;2023-03-01T03:10:14;8.30;;;2.28;;
55254;SDS011;41118;44.634;11.182;2023-03-01T03:12:41;6.43;;;2.40;;
55254;SDS011;41118;44.634;11.182;2023-03-01T03:15:08;9.07;;;2.95;;
55254;SDS011;41118;44.634;11.182;2023-03-01T03:17:36;9.02;;;1.70;;
55254;SDS011;41118;44.634;11.182;2023-03-01T03:20:03;8.27;;;1.63;;
55254;SDS011;41118;44.634;11.182;2023-03-01T03:22:29;6.22;;;1.35;;
55254;SDS011;41118;44.634;11.182;2023-03-01T03:24:55;5.55;;;1.75;;
55254;SDS011;41118;44.634;11.182;2023-03-01T03:27:22;11.55;;;2.30;;
55254;SDS011;41118;44.634;11.182;2023-03-01T03:29:48;8.15;;;2.35;;
55254;SDS011;41118;44.634;11.182;2023-03-01T03:32:14;5.53;;;1.33;;
55254;SDS011;41118;44.634;11.182;2023-03-01T03:34:40;7.60;;;2.35;;
55254;SDS011;41118;44.634;11.182;2023-03-01T03:37:07;5.20;;;2.17;;
55254;SDS011;41118;44.634;11.182;2023-03-01T03:39:53;8.38;;;1.95;;
55254;SDS011;41118;44.634;11.182;2023-03-01T03:42:20;5.40;;;1.30;;
55254;SDS011;41118;44.634;11.182;2023-03-01T03:44:47;6.70;;;1.73;;
55254;SDS011;41118;44.634;11.182;2023-03-01T03:47:13;5.22;;;1.52;;
55254;SDS011;41118;44.634;11.182;2023-03-01T03:49:39;6.22;;;1.23;;
55254;SDS011;41118;44.634;11.182;2023-03-01T03:52:06;3.40;;;1.02;;
55254;SDS011;41118;44.634;11.182;2023-03-01T03:54:38;7.05;;;2.22;;
55254;SDS011;41118;44.634;11.182;2023-03-01T03:57:05;3.83;;;1.20;;
55254;SDS011;41118;44.634;11.182;2023-03-01T03:59:31;7.57;;;1.92;;
55254;SDS011;41118;44.634;11.182;2023-03-01T04:01:57;5.38;;;1.90;;
55254;SDS011;41118;44.634;11.182;2023-03-01T04:04:23;8.38;;;2.53;;
55254;SDS011;41118;44.634;11.182;2023-03-01T04:06:49;9.13;;;1.95;;
55254;SDS011;41118;44.634;11.182;2023-03-01T04:09:15;11.02;;;3.42;;
55254;SDS011;41118;44.634;11.182;2023-03-01T04:11:41;6.20;;;2.17;;
55254;SDS011;41118;44.634;11.182;2023-03-01T04:14:07;8.10;;;1.27;;
55254;SDS011;41118;44.634;11.182;2023-03-01T04:16:33;5.53;;;1.83;;
55254;SDS011;41118;44.634;11.182;2023-03-01T04:18:59;6.60;;;1.60;;
55254;SDS011;41118;44.634;11.182;2023-03-01T04:21:25;7.55;;;2.75;;
55254;SDS011;41118;44.634;11.182;2023-03-01T04:23:51;10.20;;;3.47;;
55254;SDS011;41118;44.634;11.182;2023-03-01T04:26:18;6.43;;;1.35;;
55254;SDS011;41118;44.634;11.182;2023-03-01T04:28:45;8.57;;;2.40;;
55254;SDS011;41118;44.634;11.182;2023-03-01T04:31:13;5.55;;;1.65;;
55254;SDS011;41118;44.634;11.182;2023-03-01T04:33:53;9.07;;;1.75;;
55254;SDS011;41118;44.634;11.182;2023-03-01T04:36:20;9.30;;;2.10;;
55254;SDS011;41118;44.634;11.182;2023-03-01T04:38:46;8.20;;;2.03;;
55254;SDS011;41118;44.634;11.182;2023-03-01T04:41:13;3.13;;;1.33;;
55254;SDS011;41118;44.634;11.182;2023-03-01T04:43:39;10.18;;;3.13;;
55254;SDS011;41118;44.634;11.182;2023-03-01T04:46:06;10.30;;;2.75;;
55254;SDS011;41118;44.634;11.182;2023-03-01T04:48:37;9.07;;;2.97;;
55254;SDS011;41118;44.634;11.182;2023-03-01T04:51:03;7.95;;;2.33;;
55254;SDS011;41118;44.634;11.182;2023-03-01T04:53:30;7.63;;;2.60;;
55254;SDS011;41118;44.634;11.182;2023-03-01T04:55:57;6.50;;;2.92;;
55254;SDS011;41118;44.634;11.182;2023-03-01T04:58:24;7.50;;;2.05;;
55254;SDS011;41118;44.634;11.182;2023-03-01T05:00:50;9.48;;;3.75;;
55254;SDS011;41118;44.634;11.182;2023-03-01T05:03:16;9.70;;;2.20;;
55254;SDS011;41118;44.634;11.182;2023-03-01T05:05:43;10.55;;;1.77;;
55254;SDS011;41118;44.634;11.182;2023-03-01T05:08:09;12.32;;;3.17;;
55254;SDS011;41118;44.634;11.182;2023-03-01T05:10:49;6.15;;;1.77;;
55254;SDS011;41118;44.634;11.182;2023-03-01T05:13:15;7.88;;;2.28;;
55254;SDS011;41118;44.634;11.182;2023-03-01T05:15:53;10.77;;;3.03;;
55254;SDS011;41118;44.634;11.182;2023-03-01T05:18:20;7.82;;;1.58;;
55254;SDS011;41118;44.634;11.182;2023-03-01T05:20:46;6.70;;;2.03;;
55254;SDS011;41118;44.634;11.182;2023-03-01T05:23:12;6.60;;;2.38;;
55254;SDS011;41118;44.634;11.182;2023-03-01T05:25:38;5.22;;;0.50;;
55254;SDS011;41118;44.634;11.182;2023-03-01T05:28:10;6.32;;;1.27;;
55254;SDS011;41118;44.634;11.182;2023-03-01T05:30:37;8.63;;;2.40;;
55254;SDS011;41118;44.634;11.182;2023-03-01T05:33:06;15.25;;;3.83;;
55254;SDS011;41118;44.634;11.182;2023-03-01T05:35:38;7.22;;;2.17;;
55254;SDS011;41118;44.634;11.182;2023-03-01T05:38:04;8.85;;;2.58;;
55254;SDS011;41118;44.634;11.182;2023-03-01T05:40:32;6.70;;;0.95;;
55254;SDS011;41118;44.634;11.182;2023-03-01T05:42:58;4.95;;;1.40;;
55254;SDS011;41118;44.634;11.182;2023-03-01T05:45:26;9.00;;;2.42;;
55254;SDS011;41118;44.634;11.182;2023-03-01T05:47:52;6.38;;;1.50;;
55254;SDS011;41118;44.634;11.182;2023-03-01T05:50:20;7.50;;;2.15;;
55254;SDS011;41118;44.634;11.182;2023-03-01T05:52:50;8.75;;;2.50;;
55254;SDS011;41118;44.634;11.182;2023-03-01T05:55:17;7.45;;;2.00;;
55254;SDS011;41118;44.634;11.182;2023-03-01T05:57:44;13.55;;;3.08;;
55254;SDS011;41118;44.634;11.182;2023-03-01T06:00:10;6.97;;;1.77;;
55254;SDS011;41118;44.634;11.182;2023-03-01T06:02:36;8.32;;;2.00;;
55254;SDS011;41118;44.634;11.182;2023-03-01T06:05:03;6.72;;;2.22;;
55254;SDS011;41118;44.634;11.182;2023-03-01T06:07:29;5.53;;;1.75;;
55254;SDS011;41118;44.634;11.182;2023-03-01T06:09:56;6.68;;;2.70;;
55254;SDS011;41118;44.634;11.182;2023-03-01T06:12:22;4.82;;;1.27;;
55254;SDS011;41118;44.634;11.182;2023-03-01T06:14:48;6.72;;;1.60;;
55254;SDS011;41118;44.634;11.182;2023-03-01T06:17:15;7.57;;;2.28;;
55254;SDS011;41118;44.634;11.182;2023-03-01T06:19:41;7.80;;;3.13;;
55254;SDS011;41118;44.634;11.182;2023-03-01T06:22:07;9.40;;;2.20;;
55254;SDS011;41118;44.634;11.182;2023-03-01T06:24:33;10.45;;;2.90;;
55254;SDS011;41118;44.634;11.182;2023-03-01T06:26:59;6.95;;;1.65;;
55254;SDS011;41118;44.634;11.182;2023-03-01T06:29:26;6.07;;;1.85;;
55254;SDS011;41118;44.634;11.182;2023-03-01T06:31:52;4.88;;;1.02;;
55254;SDS011;41118;44.634;11.182;2023-03-01T06:34:18;8.45;;;3.22;;
55254;SDS011;41118;44.634;11.182;2023-03-01T06:36:46;6.20;;;1.23;;
55254;SDS011;41118;44.634;11.182;2023-03-01T06:39:13;4.68;;;1.08;;
55254;SDS011;41118;44.634;11.182;2023-03-01T06:41:39;7.07;;;1.75;;
55254;SDS011;41118;44.634;11.182;2023-03-01T06:44:05;8.35;;;1.58;;
55254;SDS011;41118;44.634;11.182;2023-03-01T06:46:31;4.13;;;1.08;;
55254;SDS011;41118;44.634;11.182;2023-03-01T06:48:57;6.60;;;1.48;;
55254;SDS011;41118;44.634;11.182;2023-03-01T06:51:24;5.43;;;1.63;;
55254;SDS011;41118;44.634;11.182;2023-03-01T06:53:50;5.70;;;1.45;;
55254;SDS011;41118;44.634;11.182;2023-03-01T06:56:16;7.05;;;2.08;;
55254;SDS011;41118;44.634;11.182;2023-03-01T06:58:42;3.85;;;1.25;;
55254;SDS011;41118;44.634;11.182;2023-03-01T07:01:08;7.03;;;2.33;;
55254;SDS011;41118;44.634;11.182;2023-03-01T07:03:35;4.68;;;1.10;;
55254;SDS011;41118;44.634;11.182;2023-03-01T07:06:01;5.30;;;2.38;;
55254;SDS011;41118;44.634;11.182;2023-03-01T07:08:27;4.63;;;0.95;;
55254;SDS011;41118;44.634;11.182;2023-03-01T07:10:57;5.40;;;0.70;;
55254;SDS011;41118;44.634;11.182;2023-03-01T07:13:23;6.63;;;1.42;;
55254;SDS011;41118;44.634;11.182;2023-03-01T07:15:49;4.00;;;1.42;;
55254;SDS011;41118;44.634;11.182;2023-03-01T07:18:16;6.90;;;1.20;;
55254;SDS011;41118;44.634;11.182;2023-03-01T07:20:42;4.35;;;0.80;;
55254;SDS011;41118;44.634;11.182;2023-03-01T07:23:08;5.63;;;0.70;;
55254;SDS011;41118;44.634;11.182;2023-03-01T07:25:34;4.55;;;1.25;;
55254;SDS011;41118;44.634;11.182;2023-03-01T07:28:00;4.47;;;0.98;;
55254;SDS011;41118;44.634;11.182;2023-03-01T07:30:26;5.80;;;1.02;;
55254;SDS011;41118;44.634;11.182;2023-03-01T07:32:53;7.82;;;1.65;;
55254;SDS011;41118;44.634;11.182;2023-03-01T07:35:20;9.88;;;1.10;;
55254;SDS011;41118;44.634;11.182;2023-03-01T07:37:46;7.68;;;1.17;;
55254;SDS011;41118;44.634;11.182;2023-03-01T07:40:13;9.55;;;1.48;;
55254;SDS011;41118;44.634;11.182;2023-03-01T07:42:39;6.32;;;1.45;;
55254;SDS011;41118;44.634;11.182;2023-03-01T07:45:05;6.40;;;1.83;;
55254;SDS011;41118;44.634;11.182;2023-03-01T07:47:32;7.10;;;1.67;;
55254;SDS011;41118;44.634;11.182;2023-03-01T07:49:58;8.63;;;2.83;;
55254;SDS011;41118;44.634;11.182;2023-03-01T07:52:24;5.97;;;1.98;;
55254;SDS011;41118;44.634;11.182;2023-03-01T07:54:50;4.63;;;1.65;;
55254;SDS011;41118;44.634;11.182;2023-03-01T07:57:16;6.50;;;2.17;;
55254;SDS011;41118;44.634;11.182;2023-03-01T07:59:43;7.78;;;0.80;;
55254;SDS011;41118;44.634;11.182;2023-03-01T08:02:10;7.53;;;1.00;;
55254;SDS011;41118;44.634;11.182;2023-03-01T08:04:37;3.88;;;0.70;;
55254;SDS011;41118;44.634;11.182;2023-03-01T08:07:04;6.05;;;1.40;;
55254;SDS011;41118;44.634;11.182;2023-03-01T08:09:31;7.63;;;1.38;;
55254;SDS011;41118;44.634;11.182;2023-03-01T08:11:57;5.95;;;0.98;;
55254;SDS011;41118;44.634;11.182;2023-03-01T08:14:24;5.32;;;1.02;;
55254;SDS011;41118;44.634;11.182;2023-03-01T08:16:51;5.53;;;1.55;;
55254;SDS011;41118;44.634;11.182;2023-03-01T08:19:17;12.00;;;1.13;;
55254;SDS011;41118;44.634;11.182;2023-03-01T08:21:43;4.88;;;0.80;;
55254;SDS011;41118;44.634;11.182;2023-03-01T08:24:09;8.98;;;1.60;;
55254;SDS011;41118;44.634;11.182;2023-03-01T08:26:35;4.85;;;1.15;;
55254;SDS011;41118;44.634;11.182;2023-03-01T08:29:02;7.18;;;1.02;;
55254;SDS011;41118;44.634;11.182;2023-03-01T08:31:39;5.07;;;1.00;;
55254;SDS011;41118;44.634;11.182;2023-03-01T08:34:09;8.68;;;1.42;;
55254;SDS011;41118;44.634;11.182;2023-03-01T08:36:37;10.18;;;3.08;;
55254;SDS011;41118;44.634;11.182;2023-03-01T08:39:05;5.78;;;1.67;;
55254;SDS011;41118;44.634;11.182;2023-03-01T08:41:31;8.32;;;2.33;;
55254;SDS011;41118;44.634;11.182;2023-03-01T08:43:57;10.55;;;3.90;;
55254;SDS011;41118;44.634;11.182;2023-03-01T08:46:33;8.30;;;2.45;;
55254;SDS011;41118;44.634;11.182;2023-03-01T08:49:03;10.38;;;2.80;;
55254;SDS011;41118;44.634;11.182;2023-03-01T08:51:29;5.55;;;2.38;;
55254;SDS011;41118;44.634;11.182;2023-03-01T08:53:57;9.90;;;2.53;;
55254;SDS011;41118;44.634;11.182;2023-03-01T08:56:23;17.40;;;2.17;;
55254;SDS011;41118;44.634;11.182;2023-03-01T08:58:49;9.68;;;1.65;;
55254;SDS011;41118;44.634;11.182;2023-03-01T09:01:17;5.65;;;1.85;;
55254;SDS011;41118;44.634;11.182;2023-03-01T09:03:44;9.77;;;1.95;;
55254;SDS011;41118;44.634;11.182;2023-03-01T09:06:11;12.45;;;3.28;;
55254;SDS011;41118;44.634;11.182;2023-03-01T09:08:38;8.52;;;2.58;;
55254;SDS011;41118;44.634;11.182;2023-03-01T09:11:05;9.18;;;3.28;;
55254;SDS011;41118;44.634;11.182;2023-03-01T09:13:32;7.03;;;2.20;;
55254;SDS011;41118;44.634;11.182;2023-03-01T09:15:59;11.25;;;2.53;;
55254;SDS011;41118;44.634;11.182;2023-03-01T09:18:26;8.02;;;1.92;;
55254;SDS011;41118;44.634;11.182;2023-03-01T09:20:52;8.20;;;2.33;;
55254;SDS011;41118;44.634;11.182;2023-03-01T09:23:20;6.88;;;2.17;;
55254;SDS011;41118;44.634;11.182;2023-03-01T09:25:46;9.40;;;2.92;;
55254;SDS011;41118;44.634;11.182;2023-03-01T09:28:12;10.88;;;2.60;;
55254;SDS011;41118;44.634;11.182;2023-03-01T09:30:38;9.07;;;2.78;;
55254;SDS011;41118;44.634;11.182;2023-03-01T09:33:05;10.48;;;2.22;;
55254;SDS011;41118;44.634;11.182;2023-03-01T09:35:31;9.20;;;2.92;;
55254;SDS011;41118;44.634;11.182;2023-03-01T09:37:58;10.00;;;4.03;;
55254;SDS011;41118;44.634;11.182;2023-03-01T09:40:25;10.20;;;4.95;;
55254;SDS011;41118;44.634;11.182;2023-03-01T09:45:29;18.27;;;6.35;;
55254;SDS011;41118;44.634;11.182;2023-03-01T09:47:58;15.68;;;7.13;;
55254;SDS011;41118;44.634;11.182;2023-03-01T09:50:26;16.73;;;8.65;;
55254;SDS011;41118;44.634;11.182;2023-03-01T09:53:01;20.05;;;7.40;;
55254;SDS011;41118;44.634;11.182;2023-03-01T09:55:37;14.52;;;5.95;;
55254;SDS011;41118;44.634;11.182;2023-03-01T10:00:33;15.45;;;7.10;;
55254;SDS011;41118;44.634;11.182;2023-03-01T10:03:15;20.30;;;9.60;;
55254;SDS011;41118;44.634;11.182;2023-03-01T10:05:50;12.13;;;3.25;;
55254;SDS011;41118;44.634;11.182;2023-03-01T10:10:46;16.15;;;4.40;;
55254;SDS011;41118;44.634;11.182;2023-03-01T10:13:20;10.75;;;3.03;;
55254;SDS011;41118;44.634;11.182;2023-03-01T10:15:49;9.68;;;2.80;;
55254;SDS011;41118;44.634;11.182;2023-03-01T10:18:20;10.00;;;2.75;;
55254;SDS011;41118;44.634;11.182;2023-03-01T10:23:16;10.48;;;2.00;;
55254;SDS011;41118;44.634;11.182;2023-03-01T10:25:47;11.10;;;1.75;;
55254;SDS011;41118;44.634;11.182;2023-03-01T10:31:03;6.03;;;2.30;;
55254;SDS011;41118;44.634;11.182;2023-03-01T10:33:31;7.07;;;1.70;;
55254;SDS011;41118;44.634;11.182;2023-03-01T10:35:58;10.18;;;2.60;;
55254;SDS011;41118;44.634;11.182;2023-03-01T10:38:24;12.15;;;3.60;;
55254;SDS011;41118;44.634;11.182;2023-03-01T10:43:19;7.35;;;2.35;;
55254;SDS011;41118;44.634;11.182;2023-03-01T10:45:46;15.30;;;3.00;;
55254;SDS011;41118;44.634;11.182;2023-03-01T10:48:16;9.05;;;2.83;;
55254;SDS011;41118;44.634;11.182;2023-03-01T10:51:05;11.98;;;3.60;;
55254;SDS011;41118;44.634;11.182;2023-03-01T10:55:56;13.32;;;4.43;;
55254;SDS011;41118;44.634;11.182;2023-03-01T10:58:23;10.68;;;2.72;;
55254;SDS011;41118;44.634;11.182;2023-03-01T11:00:58;13.13;;;3.97;;
55254;SDS011;41118;44.634;11.182;2023-03-01T11:13:50;10.50;;;3.75;;
55254;SDS011;41118;44.634;11.182;2023-03-01T11:16:22;8.73;;;3.00;;
55254;SDS011;41118;44.634;11.182;2023-03-01T11:22:00;14.93;;;5.40;;
55254;SDS011;41118;44.634;11.182;2023-03-01T11:24:32;11.43;;;5.45;;
55254;SDS011;41118;44.634;11.182;2023-03-01T11:27:01;13.68;;;7.22;;
55254;SDS011;41118;44.634;11.182;2023-03-01T11:29:36;18.52;;;5.35;;
55254;SDS011;41118;44.634;11.182;2023-03-01T11:32:04;13.52;;;4.72;;
55254;SDS011;41118;44.634;11.182;2023-03-01T11:37:01;10.07;;;4.63;;
55254;SDS011;41118;44.634;11.182;2023-03-01T11:42:03;11.73;;;4.65;;
55254;SDS011;41118;44.634;11.182;2023-03-01T11:44:31;14.85;;;5.70;;
55254;SDS011;41118;44.634;11.182;2023-03-01T11:57:54;5.97;;;1.10;;
55254;SDS011;41118;44.634;11.182;2023-03-01T12:00:20;12.90;;;2.30;;
55254;SDS011;41118;44.634;11.182;2023-03-01T12:05:31;6.63;;;1.92;;
55254;SDS011;41118;44.634;11.182;2023-03-01T12:10:28;8.43;;;1.15;;
55254;SDS011;41118;44.634;11.182;2023-03-01T12:28:34;7.22;;;1.10;;
55254;SDS011;41118;44.634;11.182;2023-03-01T12:49:22;6.95;;;1.60;;
55254;SDS011;41118;44.634;11.182;2023-03-01T12:54:28;9.15;;;2.00;;
55254;SDS011;41118;44.634;11.182;2023-03-01T12:56:57;9.10;;;3.70;;
55254;SDS011;41118;44.634;11.182;2023-03-01T13:14:59;5.93;;;1.27;;
55254;SDS011;41118;44.634;11.182;2023-03-01T13:17:29;9.20;;;1.45;;
55254;SDS011;41118;44.634;11.182;2023-03-01T13:19:57;5.85;;;2.33;;
55254;SDS011;41118;44.634;11.182;2023-03-01T13:22:28;8.15;;;2.28;;
55254;SDS011;41118;44.634;11.182;2023-03-01T13:25:03;8.70;;;2.17;;
55254;SDS011;41118;44.634;11.182;2023-03-01T13:29:56;8.98;;;2.97;;
55254;SDS011;41118;44.634;11.182;2023-03-01T13:32:32;9.38;;;3.15;;
55254;SDS011;41118;44.634;11.182;2023-03-01T13:34:59;7.85;;;3.03;;
55254;SDS011;41118;44.634;11.182;2023-03-01T13:37:29;8.40;;;2.33;;
55254;SDS011;41118;44.634;11.182;2023-03-01T13:39:56;9.65;;;3.30;;
55254;SDS011;41118;44.634;11.182;2023-03-01T13:44:58;9.00;;;2.92;;
55254;SDS011;41118;44.634;11.182;2023-03-01T13:47:25;12.77;;;2.53;;
55254;SDS011;41118;44.634;11.182;2023-03-01T13:50:03;7.65;;;2.92;;
55254;SDS011;41118;44.634;11.182;2023-03-01T13:52:42;8.38;;;2.97;;
55254;SDS011;41118;44.634;11.182;2023-03-01T13:57:42;8.25;;;3.30;;
55254;SDS011;41118;44.634;11.182;2023-03-01T14:03:11;7.95;;;1.77;;
55254;SDS011;41118;44.634;11.182;2023-03-01T14:05:37;5.70;;;3.03;;
55254;SDS011;41118;44.634;11.182;2023-03-01T14:08:04;6.07;;;2.72;;
55254;SDS011;41118;44.634;11.182;2023-03-01T14:10:40;9.98;;;3.10;;
55254;SDS011;41118;44.634;11.182;2023-03-01T14:13:17;6.93;;;2.25;;
55254;SDS011;41118;44.634;11.182;2023-03-01T14:15:49;7.32;;;2.30;;
55254;SDS011;41118;44.634;11.182;2023-03-01T14:19:10;6.55;;;1.67;;
55254;SDS011;41118;44.634;11.182;2023-03-01T14:21:07;8.80;;;2.60;;
55254;SDS011;41118;44.634;11.182;2023-03-01T14:23:34;10.30;;;2.33;;
55254;SDS011;41118;44.634;11.182;2023-03-01T14:26:01;9.23;;;2.22;;
55254;SDS011;41118;44.634;11.182;2023-03-01T14:28:29;9.80;;;2.47;;
55254;SDS011;41118;44.634;11.182;2023-03-01T14:30:58;9.25;;;2.63;;
55254;SDS011;41118;44.634;11.182;2023-03-01T14:38:23;10.45;;;2.55;;
55254;SDS011;41118;44.634;11.182;2023-03-01T14:40:51;10.23;;;2.90;;
55254;SDS011;41118;44.634;11.182;2023-03-01T14:43:20;7.63;;;2.28;;
55254;SDS011;41118;44.634;11.182;2023-03-01T14:45:48;5.53;;;1.40;;
55254;SDS011;41118;44.634;11.182;2023-03-01T14:48:15;10.27;;;1.52;;
55254;SDS011;41118;44.634;11.182;2023-03-01T14:50:42;8.35;;;2.92;;
55254;SDS011;41118;44.634;11.182;2023-03-01T14:53:15;11.55;;;3.08;;
55254;SDS011;41118;44.634;11.182;2023-03-01T14:55:44;11.93;;;3.83;;
55254;SDS011;41118;44.634;11.182;2023-03-01T14:58:12;9.45;;;3.33;;
55254;SDS011;41118;44.634;11.182;2023-03-01T15:00:38;10.70;;;4.03;;
55254;SDS011;41118;44.634;11.182;2023-03-01T15:03:13;9.73;;;3.38;;
55254;SDS011;41118;44.634;11.182;2023-03-01T15:05:40;10.80;;;2.85;;
55254;SDS011;41118;44.634;11.182;2023-03-01T15:08:07;8.18;;;2.47;;
55254;SDS011;41118;44.634;11.182;2023-03-01T15:10:55;7.32;;;1.42;;
55254;SDS011;41118;44.634;11.182;2023-03-01T15:13:22;8.20;;;2.70;;
55254;SDS011;41118;44.634;11.182;2023-03-01T15:15:49;9.85;;;2.50;;
55254;SDS011;41118;44.634;11.182;2023-03-01T15:18:18;6.60;;;2.20;;
55254;SDS011;41118;44.634;11.182;2023-03-01T15:20:45;8.80;;;2.88;;
55254;SDS011;41118;44.634;11.182;2023-03-01T15:25:51;6.65;;;2.60;;
55254;SDS011;41118;44.634;11.182;2023-03-01T15:28:22;11.82;;;3.60;;
55254;SDS011;41118;44.634;11.182;2023-03-01T15:30:52;10.30;;;3.35;;
55254;SDS011;41118;44.634;11.182;2023-03-01T15:35:54;15.07;;;2.92;;
55254;SDS011;41118;44.634;11.182;2023-03-01T15:40:53;8.18;;;3.20;;
55254;SDS011;41118;44.634;11.182;2023-03-01T15:43:38;6.30;;;2.47;;
55254;SDS011;41118;44.634;11.182;2023-03-01T15:46:05;11.55;;;3.97;;
55254;SDS011;41118;44.634;11.182;2023-03-01T15:48:37;6.07;;;2.13;;
55254;SDS011;41118;44.634;11.182;2023-03-01T15:51:03;11.40;;;2.78;;
55254;SDS011;41118;44.634;11.182;2023-03-01T15:53:30;6.75;;;2.53;;
55254;SDS011;41118;44.634;11.182;2023-03-01T15:55:56;8.20;;;2.08;;
55254;SDS011;41118;44.634;11.182;2023-03-01T15:58:23;9.65;;;1.83;;
55254;SDS011;41118;44.634;11.182;2023-03-01T16:00:50;5.70;;;1.10;;
55254;SDS011;41118;44.634;11.182;2023-03-01T16:03:21;5.05;;;1.48;;
55254;SDS011;41118;44.634;11.182;2023-03-01T16:05:48;6.25;;;1.92;;
55254;SDS011;41118;44.634;11.182;2023-03-01T16:08:14;7.15;;;2.72;;
55254;SDS011;41118;44.634;11.182;2023-03-01T16:10:41;8.73;;;2.38;;
55254;SDS011;41118;44.634;11.182;2023-03-01T16:13:08;8.32;;;1.95;;
55254;SDS011;41118;44.634;11.182;2023-03-01T16:15:34;10.23;;;3.15;;
55254;SDS011;41118;44.634;11.182;2023-03-01T16:18:01;5.95;;;2.78;;
55254;SDS011;41118;44.634;11.182;2023-03-01T16:20:27;10.18;;;3.38;;
55254;SDS011;41118;44.634;11.182;2023-03-01T16:22:54;10.52;;;2.88;;
55254;SDS011;41118;44.634;11.182;2023-03-01T16:25:20;9.13;;;2.22;;
55254;SDS011;41118;44.634;11.182;2023-03-01T16:27:47;9.07;;;2.35;;
55254;SDS011;41118;44.634;11.182;2023-03-01T16:30:15;9.63;;;2.80;;
55254;SDS011;41118;44.634;11.182;2023-03-01T16:32:42;10.57;;;3.60;;
55254;SDS011;41118;44.634;11.182;2023-03-01T16:35:10;8.57;;;2.35;;
55254;SDS011;41118;44.634;11.182;2023-03-01T16:37:37;8.23;;;2.95;;
55254;SDS011;41118;44.634;11.182;2023-03-01T16:40:04;13.07;;;2.38;;
55254;SDS011;41118;44.634;11.182;2023-03-01T16:42:34;10.85;;;5.55;;
55254;SDS011;41118;44.634;11.182;2023-03-01T16:45:00;12.18;;;4.97;;
55254;SDS011;41118;44.634;11.182;2023-03-01T16:47:27;10.55;;;4.72;;
55254;SDS011;41118;44.634;11.182;2023-03-01T16:49:53;11.38;;;2.92;;
55254;SDS011;41118;44.634;11.182;2023-03-01T16:52:20;10.60;;;3.22;;
55254;SDS011;41118;44.634;11.182;2023-03-01T16:54:46;12.65;;;2.60;;
55254;SDS011;41118;44.634;11.182;2023-03-01T16:57:12;9.50;;;2.08;;
55254;SDS011;41118;44.634;11.182;2023-03-01T16:59:38;11.70;;;3.97;;